createdAt,value
2023-03-31T00:01:08.323Z,97.82
2023-03-31T00:03:38.712Z,97.66
2023-03-31T00:06:06.327Z,98.38
2023-03-31T00:08:36.940Z,98.90
2023-03-31T00:11:07.422Z,99.12
2023-03-31T00:13:36.617Z,98.19
2023-03-31T00:16:08.699Z,96.67
2023-03-31T00:18:37.092Z,96.36
2023-03-31T00:21:08.375Z,96.91
2023-03-31T00:23:35.538Z,96.87
2023-03-31T00:26:02.484Z,95.75
2023-03-31T00:28:29.537Z,95.58
2023-03-31T00:31:02.259Z,94.69
2023-03-31T00:33:29.863Z,92.92
2023-03-31T00:35:57.864Z,93.37
2023-03-31T00:38:24.778Z,93.21
2023-03-31T00:40:53.808Z,92.83
2023-03-31T00:43:38.233Z,92.60
2023-03-31T00:46:30.970Z,91.61
2023-03-31T00:48:58.737Z,91.68
2023-03-31T00:51:30.141Z,91.96
2023-03-31T00:54:02.253Z,90.36
2023-03-31T00:56:34.842Z,91.24
2023-03-31T00:59:04.997Z,92.01
2023-03-31T01:01:32.196Z,90.76
2023-03-31T01:03:59.333Z,91.24
2023-03-31T01:06:30.791Z,92.60
2023-03-31T01:08:58.238Z,94.26
2023-03-31T01:11:27.670Z,95.68
2023-03-31T01:13:56.824Z,96.39
2023-03-31T01:16:23.829Z,94.78
2023-03-31T01:18:51.195Z,96.30
2023-03-31T01:21:57.053Z,94.26
2023-03-31T01:24:53.502Z,94.26
2023-03-31T01:27:28.165Z,93.95
2023-03-31T01:30:16.830Z,92.25
2023-03-31T01:33:23.677Z,93.33
2023-03-31T01:36:09.161Z,92.76
2023-03-31T01:38:45.239Z,92.37
2023-03-31T01:41:37.718Z,91.87
2023-03-31T01:44:29.373Z,89.96
2023-03-31T01:47:18.323Z,89.46
2023-03-31T01:50:05.068Z,90.22
2023-03-31T01:52:38.120Z,92.00
2023-03-31T01:55:08.957Z,92.03
2023-03-31T01:58:03.811Z,92.00
2023-03-31T02:00:37.451Z,93.34
2023-03-31T02:03:34.388Z,92.78
2023-03-31T02:06:13.316Z,92.29
2023-03-31T02:08:48.471Z,92.36
2023-03-31T02:11:16.361Z,92.46
2023-03-31T02:13:47.447Z,93.01
2023-03-31T02:16:24.292Z,93.57
2023-03-31T02:19:02.255Z,92.80
2023-03-31T02:21:35.040Z,93.59
2023-03-31T02:24:07.153Z,92.58
2023-03-31T02:26:45.838Z,92.42
2023-03-31T02:29:12.858Z,91.47
2023-03-31T02:32:10.240Z,91.65
2023-03-31T02:34:37.493Z,91.48
2023-03-31T02:37:04.414Z,91.45
2023-03-31T02:39:35.636Z,90.87
2023-03-31T02:42:07.396Z,91.45
2023-03-31T02:44:39.757Z,92.23
2023-03-31T02:47:10.922Z,92.49
2023-03-31T02:49:42.481Z,92.20
2023-03-31T02:52:40.491Z,92.97
2023-03-31T02:55:31.534Z,92.90
2023-03-31T02:58:27.234Z,92.80
2023-03-31T03:01:02.715Z,92.64
2023-03-31T03:04:06.281Z,93.84
2023-03-31T03:07:05.527Z,93.72
2023-03-31T03:10:01.480Z,93.30
2023-03-31T03:12:58.837Z,94.96
2023-03-31T03:15:34.465Z,94.59
2023-03-31T03:18:02.191Z,94.85
2023-03-31T03:20:29.128Z,95.45
2023-03-31T03:22:56.101Z,95.67
2023-03-31T03:25:24.364Z,95.26
2023-03-31T03:27:53.074Z,95.78
2023-03-31T03:30:20.160Z,95.79
2023-03-31T03:32:47.226Z,95.62
2023-03-31T03:35:14.473Z,97.17
2023-03-31T03:37:41.344Z,98.45
2023-03-31T03:40:09.554Z,99.64
2023-03-31T03:42:36.600Z,99.67
2023-03-31T03:45:03.826Z,98.53
2023-03-31T03:47:30.839Z,99.10
2023-03-31T03:49:57.837Z,100.00
2023-03-31T03:52:24.774Z,100.00
2023-03-31T03:54:51.681Z,100.00
2023-03-31T03:57:18.623Z,100.00
2023-03-31T03:59:45.610Z,99.65
2023-03-31T04:02:12.571Z,99.12
2023-03-31T04:04:39.603Z,98.74
2023-03-31T04:07:06.542Z,99.34
2023-03-31T04:09:33.424Z,99.92
2023-03-31T04:12:00.994Z,99.88
2023-03-31T04:14:28.026Z,99.50
2023-03-31T04:16:56.446Z,99.92
2023-03-31T04:19:25.922Z,99.73
2023-03-31T04:22:02.639Z,100.00
2023-03-31T04:24:32.763Z,100.00
2023-03-31T04:27:00.938Z,100.00
2023-03-31T04:29:27.898Z,100.00
2023-03-31T04:31:59.225Z,100.00
2023-03-31T04:34:34.928Z,100.00
2023-03-31T04:37:03.074Z,100.00
2023-03-31T04:39:31.096Z,100.00
2023-03-31T04:42:00.889Z,100.00
2023-03-31T04:44:28.250Z,100.00
2023-03-31T04:46:56.105Z,100.00
2023-03-31T04:49:23.304Z,100.00
2023-03-31T04:51:50.584Z,100.00
2023-03-31T04:54:17.557Z,100.00
2023-03-31T04:56:44.599Z,100.00
2023-03-31T04:59:11.625Z,100.00
2023-03-31T05:01:38.570Z,100.00
2023-03-31T05:04:06.295Z,100.00
2023-03-31T05:06:33.788Z,100.00
2023-03-31T05:09:00.779Z,100.00
2023-03-31T05:11:29.011Z,100.00
2023-03-31T05:13:56.025Z,100.00
2023-03-31T05:16:23.032Z,100.00
2023-03-31T05:18:50.004Z,100.00
2023-03-31T05:21:20.679Z,100.00
2023-03-31T05:23:48.345Z,100.00
2023-03-31T05:26:15.880Z,100.00
2023-03-31T05:28:42.937Z,100.00
2023-03-31T05:31:11.361Z,100.00
2023-03-31T05:33:42.196Z,100.00
2023-03-31T05:36:15.391Z,100.00
2023-03-31T05:38:43.325Z,100.00
2023-03-31T05:41:11.858Z,100.00
2023-03-31T05:43:39.942Z,100.00
2023-03-31T05:46:07.360Z,100.00
2023-03-31T05:48:34.732Z,100.00
2023-03-31T05:51:02.144Z,100.00
2023-03-31T05:53:29.919Z,100.00
2023-03-31T05:55:59.583Z,100.00
2023-03-31T05:58:27.494Z,100.00
2023-03-31T06:01:19.787Z,100.00
2023-03-31T06:03:47.422Z,100.00
2023-03-31T06:06:16.414Z,100.00
2023-03-31T06:08:45.781Z,100.00
2023-03-31T06:11:19.538Z,100.00
2023-03-31T06:13:46.805Z,100.00
2023-03-31T06:16:15.596Z,100.00
2023-03-31T06:18:42.689Z,100.00
2023-03-31T06:21:19.409Z,100.00
2023-03-31T06:23:46.460Z,100.00
2023-03-31T06:26:19.088Z,100.00
2023-03-31T06:28:46.784Z,100.00
2023-03-31T06:31:18.301Z,100.00
2023-03-31T06:33:46.261Z,100.00
2023-03-31T06:36:16.813Z,100.00
2023-03-31T06:38:44.482Z,100.00
2023-03-31T06:41:14.845Z,100.00
2023-03-31T06:43:42.009Z,100.00
2023-03-31T06:46:09.742Z,100.00
2023-03-31T06:48:37.165Z,100.00
2023-03-31T06:51:06.680Z,100.00
2023-03-31T06:53:34.736Z,100.00
2023-03-31T06:56:01.781Z,100.00
2023-03-31T06:58:31.321Z,100.00
2023-03-31T07:01:01.746Z,100.00
2023-03-31T07:03:29.635Z,100.00
2023-03-31T07:05:56.982Z,100.00
2023-03-31T07:08:24.797Z,100.00
2023-03-31T07:10:58.834Z,100.00
2023-03-31T07:13:26.763Z,100.00
2023-03-31T07:15:54.160Z,100.00
2023-03-31T07:18:25.862Z,100.00
2023-03-31T07:20:53.297Z,100.00
2023-03-31T07:23:20.814Z,100.00
2023-03-31T07:25:48.230Z,100.00
2023-03-31T07:28:15.835Z,100.00
2023-03-31T07:30:43.192Z,100.00
2023-03-31T07:33:10.513Z,100.00
2023-03-31T07:35:41.688Z,100.00
2023-03-31T07:38:10.785Z,100.00
2023-03-31T07:40:38.568Z,100.00
2023-03-31T07:43:06.270Z,100.00
2023-03-31T07:45:34.278Z,100.00
2023-03-31T07:48:01.221Z,100.00
2023-03-31T07:50:28.226Z,100.00
2023-03-31T07:52:55.133Z,100.00
2023-03-31T07:55:23.656Z,100.00
2023-03-31T07:57:51.355Z,100.00
2023-03-31T08:00:18.993Z,100.00
2023-03-31T08:02:45.989Z,100.00
2023-03-31T08:05:16.462Z,100.00
2023-03-31T08:07:46.818Z,100.00
2023-03-31T08:10:18.654Z,100.00
2023-03-31T08:12:45.720Z,100.00
2023-03-31T08:15:13.015Z,100.00
2023-03-31T08:17:41.051Z,100.00
2023-03-31T08:20:10.465Z,100.00
2023-03-31T08:22:39.141Z,100.00
2023-03-31T08:25:08.342Z,100.00
2023-03-31T08:27:37.909Z,100.00
2023-03-31T08:30:07.904Z,99.72
2023-03-31T08:32:35.971Z,100.00
2023-03-31T08:35:03.568Z,100.00
2023-03-31T08:37:31.541Z,98.94
2023-03-31T08:39:58.713Z,96.71
2023-03-31T08:42:49.219Z,95.65
2023-03-31T08:45:18.922Z,94.61
2023-03-31T08:47:48.219Z,93.79
2023-03-31T08:50:24.998Z,94.97
2023-03-31T08:53:35.029Z,91.90
2023-03-31T08:56:08.781Z,90.06
2023-03-31T08:58:49.318Z,91.66
2023-03-31T09:01:56.854Z,90.02
2023-03-31T09:04:32.727Z,88.49
2023-03-31T09:07:37.035Z,89.99
2023-03-31T09:10:13.163Z,89.15
2023-03-31T09:13:21.891Z,87.71
2023-03-31T09:15:58.638Z,86.71
2023-03-31T09:18:37.880Z,82.96
2023-03-31T09:21:34.318Z,78.81
2023-03-31T09:24:23.671Z,77.16
2023-03-31T09:26:57.486Z,77.94
2023-03-31T09:29:45.823Z,78.82
2023-03-31T09:32:20.362Z,75.67
2023-03-31T09:34:53.980Z,75.85
2023-03-31T09:37:21.038Z,74.84
2023-03-31T09:39:47.962Z,74.99
2023-03-31T09:42:15.150Z,75.99
2023-03-31T09:44:46.829Z,77.87
2023-03-31T09:47:32.176Z,76.85
2023-03-31T09:49:59.532Z,76.33
2023-03-31T09:52:31.990Z,76.54
2023-03-31T09:55:03.254Z,74.21
2023-03-31T09:57:39.801Z,74.61
2023-03-31T10:00:17.802Z,74.18
2023-03-31T10:02:57.707Z,73.62
2023-03-31T10:05:28.467Z,72.36
2023-03-31T10:08:39.702Z,71.87
2023-03-31T10:11:10.100Z,74.32
2023-03-31T10:14:13.584Z,73.66
2023-03-31T10:16:47.868Z,74.81
2023-03-31T10:19:27.934Z,75.59
2023-03-31T10:22:09.734Z,79.37
2023-03-31T10:24:44.962Z,80.85
2023-03-31T10:27:28.896Z,84.59
2023-03-31T10:29:59.705Z,91.55
2023-03-31T10:32:31.876Z,92.24
2023-03-31T10:35:06.376Z,96.51
2023-03-31T10:37:36.438Z,100.00
2023-03-31T10:40:15.547Z,100.00
2023-03-31T10:42:47.833Z,100.00
2023-03-31T10:45:36.595Z,95.46
2023-03-31T10:48:09.539Z,93.53
2023-03-31T10:50:37.007Z,92.77
2023-03-31T10:53:14.207Z,91.06
2023-03-31T10:56:19.716Z,93.28
2023-03-31T10:59:05.727Z,93.29
2023-03-31T11:02:03.717Z,92.41
2023-03-31T11:04:55.979Z,92.48
2023-03-31T11:07:49.606Z,90.28
2023-03-31T11:10:34.985Z,87.97
2023-03-31T11:13:25.667Z,87.55
2023-03-31T11:16:02.970Z,86.48
2023-03-31T11:18:50.779Z,86.38
2023-03-31T11:21:43.453Z,82.33
2023-03-31T11:25:00.492Z,81.07
2023-03-31T11:28:07.286Z,79.45
2023-03-31T11:30:57.395Z,80.16
2023-03-31T11:33:44.094Z,78.13
2023-03-31T11:36:26.163Z,79.48
2023-03-31T11:39:29.445Z,77.59
2023-03-31T11:42:04.461Z,76.97
2023-03-31T11:44:47.061Z,77.78
2023-03-31T11:47:19.967Z,76.97
2023-03-31T11:49:55.740Z,79.79
2023-03-31T11:52:30.028Z,76.94
2023-03-31T11:55:04.891Z,78.92
2023-03-31T11:58:01.072Z,76.26
2023-03-31T12:00:41.274Z,76.87
2023-03-31T12:03:21.701Z,75.82
2023-03-31T12:06:02.808Z,74.61
2023-03-31T12:08:51.301Z,77.66
2023-03-31T12:12:04.376Z,76.30
2023-03-31T12:14:41.592Z,76.65
2023-03-31T12:17:14.718Z,77.18
2023-03-31T12:19:58.509Z,76.83
2023-03-31T12:22:34.510Z,76.12
2023-03-31T12:25:02.736Z,77.46
2023-03-31T12:27:42.866Z,76.80
2023-03-31T12:30:42.775Z,78.01
2023-03-31T12:33:21.812Z,77.24
2023-03-31T12:36:46.181Z,77.31
2023-03-31T12:39:51.530Z,78.24
2023-03-31T12:42:48.634Z,79.93
2023-03-31T12:45:36.069Z,80.61
2023-03-31T12:48:52.821Z,80.65
2023-03-31T12:51:30.386Z,80.44
2023-03-31T12:54:18.400Z,81.66
2023-03-31T12:57:03.189Z,84.07
2023-03-31T12:59:36.857Z,84.36
2023-03-31T13:02:10.129Z,82.84
2023-03-31T13:04:38.818Z,83.41
2023-03-31T13:07:33.908Z,81.92
2023-03-31T13:10:19.343Z,80.26
2023-03-31T13:13:04.807Z,83.86
2023-03-31T13:15:33.074Z,86.99
2023-03-31T13:18:06.602Z,86.92
2023-03-31T13:20:40.438Z,86.54
2023-03-31T13:23:26.062Z,86.37
2023-03-31T13:25:58.397Z,86.85
2023-03-31T13:28:47.040Z,90.82
2023-03-31T13:31:15.206Z,93.20
2023-03-31T13:34:01.768Z,94.84
2023-03-31T13:36:54.223Z,94.04
2023-03-31T13:40:06.842Z,92.07
2023-03-31T13:43:10.927Z,90.38
2023-03-31T13:46:23.480Z,87.60
2023-03-31T13:49:15.024Z,87.94
2023-03-31T13:51:57.891Z,86.71
2023-03-31T13:54:48.952Z,85.95
2023-03-31T13:57:46.675Z,85.41
2023-03-31T14:00:48.713Z,85.38
2023-03-31T14:03:52.461Z,84.63
2023-03-31T14:06:28.341Z,83.87
2023-03-31T14:09:06.405Z,88.02
2023-03-31T14:11:33.896Z,90.63
2023-03-31T14:14:18.975Z,93.37
2023-03-31T14:16:46.037Z,96.59
2023-03-31T14:19:43.882Z,95.90
2023-03-31T14:22:38.176Z,96.76
2023-03-31T14:25:20.046Z,95.18
2023-03-31T14:27:53.838Z,96.73
2023-03-31T14:30:35.515Z,96.20
2023-03-31T14:33:59.439Z,94.53
2023-03-31T14:36:29.482Z,93.29
2023-03-31T14:39:03.984Z,92.16
2023-03-31T14:41:31.166Z,92.96
2023-03-31T14:44:01.972Z,89.99
2023-03-31T14:46:35.528Z,89.41
2023-03-31T14:49:19.884Z,85.84
2023-03-31T14:51:46.979Z,86.34
2023-03-31T14:54:20.491Z,82.94
2023-03-31T14:56:53.682Z,82.70
2023-03-31T14:59:29.420Z,83.52
2023-03-31T15:02:02.743Z,83.51
2023-03-31T15:04:42.131Z,83.20
2023-03-31T15:07:10.870Z,83.35
2023-03-31T15:09:39.484Z,83.52
2023-03-31T15:12:15.168Z,84.60
2023-03-31T15:15:06.852Z,84.32
2023-03-31T15:17:41.395Z,84.37
2023-03-31T15:20:38.625Z,85.70
2023-03-31T15:23:27.600Z,86.55
2023-03-31T15:26:19.194Z,86.24
2023-03-31T15:28:56.992Z,85.86
2023-03-31T15:31:27.146Z,85.24
2023-03-31T15:33:54.534Z,85.62
2023-03-31T15:36:22.810Z,88.39
2023-03-31T15:38:59.116Z,88.39
2023-03-31T15:41:31.554Z,90.48
2023-03-31T15:44:37.858Z,92.53
2023-03-31T15:47:21.302Z,92.00
2023-03-31T15:49:58.941Z,91.38
2023-03-31T15:52:36.954Z,91.17
2023-03-31T15:55:25.403Z,92.29
2023-03-31T15:57:54.232Z,92.28
2023-03-31T16:00:41.080Z,91.79
2023-03-31T16:03:44.582Z,92.90
2023-03-31T16:06:37.024Z,93.37
2023-03-31T16:09:39.007Z,94.71
2023-03-31T16:12:16.197Z,95.34
2023-03-31T16:14:52.736Z,95.95
2023-03-31T16:17:30.962Z,92.16
2023-03-31T16:20:11.057Z,89.58
2023-03-31T16:22:45.380Z,88.65
2023-03-31T16:25:17.110Z,89.58
2023-03-31T16:27:49.393Z,91.15
2023-03-31T16:30:21.105Z,91.12
2023-03-31T16:33:02.194Z,90.90
2023-03-31T16:35:41.704Z,90.50
2023-03-31T16:38:11.383Z,89.89
2023-03-31T16:40:41.534Z,90.61
2023-03-31T16:43:17.351Z,91.67
2023-03-31T16:45:53.855Z,95.51
2023-03-31T16:48:24.679Z,95.82
2023-03-31T16:50:57.824Z,96.76
2023-03-31T16:53:31.452Z,99.08
2023-03-31T16:55:58.656Z,98.69
2023-03-31T16:58:28.962Z,99.59
2023-03-31T17:00:58.174Z,100.00
2023-03-31T17:03:26.082Z,100.00
2023-03-31T17:05:58.473Z,100.00
2023-03-31T17:08:27.651Z,100.00
2023-03-31T17:11:01.303Z,100.00
2023-03-31T17:13:28.389Z,100.00
2023-03-31T17:16:01.482Z,100.00
2023-03-31T17:18:40.393Z,100.00
2023-03-31T17:21:10.744Z,100.00
2023-03-31T17:23:39.330Z,100.00
2023-03-31T17:26:10.606Z,99.95
2023-03-31T17:28:37.735Z,99.23
2023-03-31T17:31:11.966Z,99.13
2023-03-31T17:33:40.623Z,98.43
2023-03-31T17:36:08.510Z,97.89
2023-03-31T17:38:35.715Z,97.52
2023-03-31T17:41:04.670Z,96.44
2023-03-31T17:43:31.748Z,96.72
2023-03-31T17:46:09.928Z,97.69
2023-03-31T17:48:39.148Z,97.39
2023-03-31T17:51:16.326Z,98.02
2023-03-31T17:53:46.092Z,98.51
2023-03-31T17:56:14.708Z,98.29
2023-03-31T17:58:41.729Z,98.52
2023-03-31T18:01:11.858Z,99.51
2023-03-31T18:03:39.178Z,99.50
2023-03-31T18:06:13.261Z,99.79
2023-03-31T18:08:41.625Z,100.00
2023-03-31T18:11:09.909Z,100.00
2023-03-31T18:13:37.670Z,100.00
2023-03-31T18:16:08.633Z,100.00
2023-03-31T18:18:36.985Z,100.00
2023-03-31T18:21:10.436Z,100.00
2023-03-31T18:23:38.273Z,100.00
2023-03-31T18:26:13.142Z,100.00
2023-03-31T18:28:40.865Z,100.00
2023-03-31T18:31:08.904Z,100.00
2023-03-31T18:33:36.520Z,100.00
2023-03-31T18:36:03.919Z,100.00
2023-03-31T18:38:31.360Z,100.00
2023-03-31T18:40:58.277Z,100.00
2023-03-31T18:43:26.387Z,100.00
2023-03-31T18:45:55.476Z,100.00
2023-03-31T18:48:23.378Z,100.00
2023-03-31T18:50:51.962Z,100.00
2023-03-31T18:53:20.785Z,100.00
2023-03-31T18:55:52.467Z,100.00
2023-03-31T18:58:19.658Z,100.00
2023-03-31T19:00:46.634Z,100.00
2023-03-31T19:03:13.972Z,100.00
2023-03-31T19:05:41.003Z,100.00
2023-03-31T19:08:08.362Z,100.00
2023-03-31T19:10:36.499Z,100.00
2023-03-31T19:13:04.060Z,100.00
2023-03-31T19:15:31.270Z,100.00
2023-03-31T19:17:58.370Z,97.37
2023-03-31T19:20:25.560Z,96.32
2023-03-31T19:22:52.729Z,95.27
2023-03-31T19:25:20.719Z,94.79
2023-03-31T19:27:48.349Z,95.25
2023-03-31T19:30:24.964Z,95.32
2023-03-31T19:32:52.130Z,96.91
2023-03-31T19:35:20.392Z,97.99
2023-03-31T19:37:48.074Z,98.14
2023-03-31T19:40:15.421Z,98.77
2023-03-31T19:42:44.175Z,100.00
2023-03-31T19:45:11.534Z,100.00
2023-03-31T19:47:38.733Z,100.00
2023-03-31T19:50:07.325Z,100.00
2023-03-31T19:52:35.341Z,100.00
2023-03-31T19:55:02.644Z,100.00
2023-03-31T19:57:29.723Z,100.00
2023-03-31T19:59:56.841Z,100.00
2023-03-31T20:02:24.078Z,100.00
2023-03-31T20:04:51.657Z,100.00
2023-03-31T20:07:18.891Z,100.00
2023-03-31T20:09:46.063Z,100.00
2023-03-31T20:12:13.213Z,100.00
2023-03-31T20:14:40.259Z,100.00
2023-03-31T20:17:07.566Z,100.00
2023-03-31T20:19:35.060Z,100.00
2023-03-31T20:22:02.118Z,100.00
2023-03-31T20:24:29.498Z,100.00
2023-03-31T20:26:56.892Z,100.00
2023-03-31T20:29:24.757Z,100.00
2023-03-31T20:31:51.916Z,100.00
2023-03-31T20:34:22.232Z,100.00
2023-03-31T20:36:51.417Z,100.00
2023-03-31T20:39:19.961Z,100.00
2023-03-31T20:41:47.366Z,100.00
2023-03-31T20:44:15.753Z,100.00
2023-03-31T20:46:44.032Z,100.00
2023-03-31T20:49:11.475Z,100.00
2023-03-31T20:51:39.010Z,100.00
2023-03-31T20:54:07.716Z,100.00
2023-03-31T20:56:38.342Z,100.00
2023-03-31T20:59:09.135Z,100.00
2023-03-31T21:01:37.353Z,100.00
2023-03-31T21:04:07.483Z,100.00
2023-03-31T21:06:41.017Z,100.00
2023-03-31T21:09:08.902Z,100.00
2023-03-31T21:11:35.876Z,100.00
2023-03-31T21:14:03.156Z,100.00
2023-03-31T21:16:30.109Z,100.00
2023-03-31T21:18:58.620Z,100.00
2023-03-31T21:21:27.518Z,100.00
2023-03-31T21:23:54.989Z,100.00
2023-03-31T21:26:22.911Z,100.00
2023-03-31T21:28:55.359Z,100.00
2023-03-31T21:31:24.915Z,100.00
2023-03-31T21:33:53.418Z,100.00
2023-03-31T21:36:22.687Z,100.00
2023-03-31T21:38:54.638Z,100.00
2023-03-31T21:41:30.740Z,100.00
2023-03-31T21:44:00.507Z,100.00
2023-03-31T21:46:30.972Z,100.00
2023-03-31T21:48:57.973Z,100.00
2023-03-31T21:51:25.977Z,100.00
2023-03-31T21:53:55.419Z,100.00
2023-03-31T21:56:25.072Z,100.00
2023-03-31T21:58:52.416Z,100.00
2023-03-31T22:01:19.815Z,100.00
2023-03-31T22:03:47.288Z,100.00
2023-03-31T22:06:14.234Z,100.00
2023-03-31T22:08:41.802Z,100.00
2023-03-31T22:11:12.244Z,100.00
2023-03-31T22:13:39.263Z,100.00
2023-03-31T22:16:21.753Z,100.00
2023-03-31T22:18:50.445Z,100.00
2023-03-31T22:21:27.098Z,100.00
2023-03-31T22:23:57.964Z,100.00
2023-03-31T22:26:27.214Z,100.00
2023-03-31T22:28:55.108Z,100.00
2023-03-31T22:31:22.615Z,100.00
2023-03-31T22:33:49.791Z,100.00
2023-03-31T22:36:16.724Z,100.00
2023-03-31T22:38:44.119Z,99.92
2023-03-31T22:41:11.116Z,100.00
2023-03-31T22:43:38.332Z,100.00
2023-03-31T22:46:07.440Z,100.00
2023-03-31T22:48:34.817Z,99.78
2023-03-31T22:51:11.868Z,99.49
2023-03-31T22:53:38.834Z,100.00
2023-03-31T22:56:10.012Z,98.60
2023-03-31T22:58:37.629Z,98.92
2023-03-31T23:01:06.754Z,99.45
2023-03-31T23:03:33.840Z,99.12
2023-03-31T23:06:05.732Z,99.42
2023-03-31T23:08:35.520Z,98.65
2023-03-31T23:11:05.173Z,99.29
2023-03-31T23:13:32.529Z,97.77
2023-03-31T23:16:13.207Z,98.24
2023-03-31T23:18:44.314Z,98.70
2023-03-31T23:21:12.199Z,98.04
2023-03-31T23:23:39.408Z,97.41
2023-03-31T23:26:06.932Z,98.72
2023-03-31T23:28:36.640Z,98.01
2023-03-31T23:31:03.911Z,97.25
2023-03-31T23:33:30.994Z,96.81
2023-03-31T23:36:04.571Z,97.02
2023-03-31T23:38:32.471Z,96.73
2023-03-31T23:41:00.818Z,96.78
2023-03-31T23:43:28.750Z,96.50
2023-03-31T23:45:56.458Z,95.88
2023-03-31T23:48:23.577Z,96.46
2023-03-31T23:50:50.979Z,96.25
2023-03-31T23:53:17.937Z,97.00
2023-03-31T23:55:57.888Z,96.35
2023-03-31T23:58:26.218Z,96.02
